sensor_id;sensor_type;location;lat;lon;timestamp;pressure;altitude;pressure_sealevel;temperature;humidity
71889;BME280;59762;49.998;14.858;2022-09-20T00:01:11;97387.31;;;7.50;100.00
71889;BME280;59762;49.998;14.858;2022-09-20T00:03:40;97387.69;;;7.47;100.00
71889;BME280;59762;49.998;14.858;2022-09-20T00:06:07;97393.78;;;7.41;100.00
71889;BME280;59762;49.998;14.858;2022-09-20T00:08:33;97381.56;;;7.40;100.00
71889;BME280;59762;49.998;14.858;2022-09-20T00:11:01;97397.03;;;7.43;100.00
71889;BME280;59762;49.998;14.858;2022-09-20T00:13:28;97391.34;;;7.40;100.00
71889;BME280;59762;49.998;14.858;2022-09-20T00:15:54;97381.94;;;7.37;100.00
71889;BME280;59762;49.998;14.858;2022-09-20T00:18:21;97392.16;;;7.40;100.00
71889;BME280;59762;49.998;14.858;2022-09-20T00:20:48;97392.59;;;7.44;100.00
71889;BME280;59762;49.998;14.858;2022-09-20T00:23:14;97395.41;;;7.42;100.00
71889;BME280;59762;49.998;14.858;2022-09-20T00:25:41;97393.78;;;7.41;100.00
71889;BME280;59762;49.998;14.858;2022-09-20T00:28:07;97398.44;;;7.39;100.00
71889;BME280;59762;49.998;14.858;2022-09-20T00:30:34;97399.91;;;7.42;100.00
71889;BME280;59762;49.998;14.858;2022-09-20T00:33:00;97399.09;;;7.48;100.00
71889;BME280;59762;49.998;14.858;2022-09-20T00:35:26;97400.09;;;7.40;100.00
71889;BME280;59762;49.998;14.858;2022-09-20T00:37:51;97402.75;;;7.40;100.00
71889;BME280;59762;49.998;14.858;2022-09-20T00:40:20;97395.25;;;7.44;100.00
71889;BME280;59762;49.998;14.858;2022-09-20T00:42:46;97396.44;;;7.41;100.00
71889;BME280;59762;49.998;14.858;2022-09-20T00:45:23;97396.22;;;7.43;100.00
71889;BME280;59762;49.998;14.858;2022-09-20T00:48:27;97398.50;;;7.46;100.00
71889;BME280;59762;49.998;14.858;2022-09-20T00:50:58;97399.69;;;7.43;100.00
71889;BME280;59762;49.998;14.858;2022-09-20T00:53:30;97405.00;;;7.43;100.00
71889;BME280;59762;49.998;14.858;2022-09-20T00:56:04;97397.47;;;7.47;100.00
71889;BME280;59762;49.998;14.858;2022-09-20T00:58:35;97400.34;;;7.45;100.00
71889;BME280;59762;49.998;14.858;2022-09-20T01:01:03;97402.34;;;7.43;100.00
71889;BME280;59762;49.998;14.858;2022-09-20T01:03:30;97401.16;;;7.46;100.00
71889;BME280;59762;49.998;14.858;2022-09-20T01:06:00;97403.19;;;7.44;100.00
71889;BME280;59762;49.998;14.858;2022-09-20T01:08:28;97397.31;;;7.48;100.00
71889;BME280;59762;49.998;14.858;2022-09-20T01:10:54;97406.25;;;7.47;100.00
71889;BME280;59762;49.998;14.858;2022-09-20T01:13:20;97401.97;;;7.46;100.00
71889;BME280;59762;49.998;14.858;2022-09-20T01:15:46;97395.84;;;7.46;100.00
71889;BME280;59762;49.998;14.858;2022-09-20T01:18:15;97407.91;;;7.48;100.00
71889;BME280;59762;49.998;14.858;2022-09-20T01:20:42;97399.97;;;7.55;100.00
71889;BME280;59762;49.998;14.858;2022-09-20T01:28:44;97393.44;;;7.51;100.00
71889;BME280;59762;49.998;14.858;2022-09-20T01:31:35;97391.59;;;7.51;100.00
71889;BME280;59762;49.998;14.858;2022-09-20T01:34:20;97388.94;;;7.51;100.00
71889;BME280;59762;49.998;14.858;2022-09-20T01:42:35;97384.28;;;7.53;100.00
71889;BME280;59762;49.998;14.858;2022-09-20T01:45:17;97388.56;;;7.54;100.00
71889;BME280;59762;49.998;14.858;2022-09-20T01:47:56;97385.09;;;7.54;100.00
71889;BME280;59762;49.998;14.858;2022-09-20T02:01:58;97389.38;;;7.55;100.00
71889;BME280;59762;49.998;14.858;2022-09-20T02:12:57;97388.94;;;7.51;100.00
71889;BME280;59762;49.998;14.858;2022-09-20T02:15:38;97392.22;;;7.53;100.00
71889;BME280;59762;49.998;14.858;2022-09-20T02:26:40;97393.84;;;7.54;100.00
71889;BME280;59762;49.998;14.858;2022-09-20T02:29:24;97391.81;;;7.56;100.00
71889;BME280;59762;49.998;14.858;2022-09-20T02:37:14;97402.41;;;7.50;100.00
71889;BME280;59762;49.998;14.858;2022-09-20T02:48:02;97410.13;;;7.45;100.00
71889;BME280;59762;49.998;14.858;2022-09-20T02:50:46;97408.06;;;7.47;100.00
71889;BME280;59762;49.998;14.858;2022-09-20T02:53:38;97410.56;;;7.48;100.00
71889;BME280;59762;49.998;14.858;2022-09-20T02:56:19;97410.16;;;7.51;100.00
71889;BME280;59762;49.998;14.858;2022-09-20T03:05:08;97412.78;;;7.51;100.00
71889;BME280;59762;49.998;14.858;2022-09-20T03:10:49;97415.66;;;7.50;100.00
71889;BME280;59762;49.998;14.858;2022-09-20T03:13:48;97419.13;;;7.50;100.00
71889;BME280;59762;49.998;14.858;2022-09-20T03:19:17;97429.72;;;7.50;100.00
71889;BME280;59762;49.998;14.858;2022-09-20T03:33:04;97437.44;;;7.45;100.00
71889;BME280;59762;49.998;14.858;2022-09-20T03:36:09;97437.44;;;7.45;100.00
71889;BME280;59762;49.998;14.858;2022-09-20T03:44:18;97434.94;;;7.37;100.00
71889;BME280;59762;49.998;14.858;2022-09-20T03:46:56;97435.53;;;7.39;100.00
71889;BME280;59762;49.998;14.858;2022-09-20T03:55:07;97437.44;;;7.45;100.00
71889;BME280;59762;49.998;14.858;2022-09-20T04:05:51;97441.94;;;7.51;100.00
71889;BME280;59762;49.998;14.858;2022-09-20T04:08:47;97448.66;;;7.47;100.00
71889;BME280;59762;49.998;14.858;2022-09-20T04:11:30;97446.00;;;7.47;100.00
71889;BME280;59762;49.998;14.858;2022-09-20T04:14:11;97451.50;;;7.46;100.00
71889;BME280;59762;49.998;14.858;2022-09-20T04:19:27;97457.75;;;7.38;100.00
71889;BME280;59762;49.998;14.858;2022-09-20T04:21:57;97448.78;;;7.39;100.00
71889;BME280;59762;49.998;14.858;2022-09-20T04:27:27;97471.22;;;7.37;100.00
71889;BME280;59762;49.998;14.858;2022-09-20T04:32:37;97467.31;;;7.32;100.00
71889;BME280;59762;49.998;14.858;2022-09-20T04:35:35;97465.47;;;7.33;100.00
71889;BME280;59762;49.998;14.858;2022-09-20T04:38:22;97475.63;;;7.29;100.00
71889;BME280;59762;49.998;14.858;2022-09-20T04:41:19;97480.13;;;7.29;100.00
71889;BME280;59762;49.998;14.858;2022-09-20T05:14:31;97478.44;;;7.21;100.00
71889;BME280;59762;49.998;14.858;2022-09-20T05:17:18;97476.63;;;7.22;100.00
71889;BME280;59762;49.998;14.858;2022-09-20T05:20:02;97482.91;;;7.21;100.00
71889;BME280;59762;49.998;14.858;2022-09-20T05:28:58;97488.06;;;7.29;100.00
71889;BME280;59762;49.998;14.858;2022-09-20T05:31:45;97486.47;;;7.34;100.00
71889;BME280;59762;49.998;14.858;2022-09-20T05:34:47;97485.09;;;7.39;100.00
71889;BME280;59762;49.998;14.858;2022-09-20T05:37:39;97501.03;;;7.45;100.00
71889;BME280;59762;49.998;14.858;2022-09-20T05:40:27;97491.69;;;7.49;100.00
71889;BME280;59762;49.998;14.858;2022-09-20T05:43:04;97494.53;;;7.48;100.00
71889;BME280;59762;49.998;14.858;2022-09-20T05:48:41;97503.72;;;7.52;100.00
71889;BME280;59762;49.998;14.858;2022-09-20T05:51:29;97507.84;;;7.54;100.00
71889;BME280;59762;49.998;14.858;2022-09-20T06:02:24;97500.13;;;7.59;100.00
71889;BME280;59762;49.998;14.858;2022-09-20T06:05:13;97511.31;;;7.55;100.00
71889;BME280;59762;49.998;14.858;2022-09-20T06:16:03;97502.63;;;7.68;100.00
71889;BME280;59762;49.998;14.858;2022-09-20T06:18:37;97505.28;;;7.68;100.00
71889;BME280;59762;49.998;14.858;2022-09-20T06:24:00;97512.25;;;7.75;100.00
71889;BME280;59762;49.998;14.858;2022-09-20T06:26:34;97515.97;;;7.81;100.00
71889;BME280;59762;49.998;14.858;2022-09-20T06:29:05;97517.41;;;7.83;100.00
71889;BME280;59762;49.998;14.858;2022-09-20T06:31:31;97527.03;;;7.91;100.00
71889;BME280;59762;49.998;14.858;2022-09-20T06:34:06;97520.28;;;7.89;100.00
71889;BME280;59762;49.998;14.858;2022-09-20T06:36:37;97523.78;;;7.96;100.00
71889;BME280;59762;49.998;14.858;2022-09-20T06:42:27;97517.97;;;8.14;100.00
71889;BME280;59762;49.998;14.858;2022-09-20T06:44:54;97525.38;;;8.25;100.00
71889;BME280;59762;49.998;14.858;2022-09-20T06:47:20;97524.56;;;8.31;100.00
71889;BME280;59762;49.998;14.858;2022-09-20T06:49:48;97527.63;;;8.28;100.00
71889;BME280;59762;49.998;14.858;2022-09-20T06:52:16;97528.03;;;8.25;100.00
71889;BME280;59762;49.998;14.858;2022-09-20T06:54:43;97525.63;;;8.37;100.00
71889;BME280;59762;49.998;14.858;2022-09-20T06:57:13;97531.38;;;8.40;100.00
71889;BME280;59762;49.998;14.858;2022-09-20T06:59:40;97530.69;;;8.31;100.00
71889;BME280;59762;49.998;14.858;2022-09-20T07:02:05;97543.81;;;8.40;100.00
71889;BME280;59762;49.998;14.858;2022-09-20T07:04:33;97537.69;;;8.39;100.00
71889;BME280;59762;49.998;14.858;2022-09-20T07:07:01;97542.81;;;8.41;100.00
71889;BME280;59762;49.998;14.858;2022-09-20T07:09:28;97538.38;;;8.54;100.00
71889;BME280;59762;49.998;14.858;2022-09-20T07:11:54;97542.28;;;8.72;100.00
71889;BME280;59762;49.998;14.858;2022-09-20T07:14:24;97548.84;;;8.69;100.00
71889;BME280;59762;49.998;14.858;2022-09-20T07:16:51;97542.16;;;8.87;100.00
71889;BME280;59762;49.998;14.858;2022-09-20T07:19:17;97551.97;;;8.93;100.00
71889;BME280;59762;49.998;14.858;2022-09-20T07:21:42;97549.75;;;9.09;100.00
71889;BME280;59762;49.998;14.858;2022-09-20T07:24:08;97550.78;;;9.08;100.00
71889;BME280;59762;49.998;14.858;2022-09-20T07:26:34;97555.25;;;9.15;100.00
71889;BME280;59762;49.998;14.858;2022-09-20T07:29:00;97547.28;;;9.01;100.00
71889;BME280;59762;49.998;14.858;2022-09-20T07:31:28;97553.00;;;9.12;100.00
71889;BME280;59762;49.998;14.858;2022-09-20T07:33:54;97560.59;;;9.21;100.00
71889;BME280;59762;49.998;14.858;2022-09-20T07:36:20;97563.66;;;9.38;100.00
71889;BME280;59762;49.998;14.858;2022-09-20T07:38:47;97567.16;;;9.52;100.00
71889;BME280;59762;49.998;14.858;2022-09-20T07:41:13;97566.53;;;9.63;100.00
71889;BME280;59762;49.998;14.858;2022-09-20T07:43:39;97567.34;;;9.64;100.00
71889;BME280;59762;49.998;14.858;2022-09-20T07:46:04;97569.41;;;9.75;100.00
71889;BME280;59762;49.998;14.858;2022-09-20T07:48:33;97565.03;;;10.14;100.00
71889;BME280;59762;49.998;14.858;2022-09-20T07:51:05;97579.38;;;10.19;100.00
71889;BME280;59762;49.998;14.858;2022-09-20T07:53:31;97583.56;;;10.60;100.00
71889;BME280;59762;49.998;14.858;2022-09-20T07:58:26;97574.81;;;10.46;100.00
71889;BME280;59762;49.998;14.858;2022-09-20T08:00:58;97578.56;;;10.25;100.00
71889;BME280;59762;49.998;14.858;2022-09-20T08:03:24;97577.97;;;9.97;100.00
71889;BME280;59762;49.998;14.858;2022-09-20T08:05:51;97585.53;;;9.93;100.00
71889;BME280;59762;49.998;14.858;2022-09-20T08:08:17;97586.16;;;9.95;100.00
71889;BME280;59762;49.998;14.858;2022-09-20T08:10:44;97591.47;;;9.82;100.00
71889;BME280;59762;49.998;14.858;2022-09-20T08:13:11;97591.69;;;9.54;100.00
71889;BME280;59762;49.998;14.858;2022-09-20T08:15:38;97593.94;;;9.50;100.00
71889;BME280;59762;49.998;14.858;2022-09-20T08:18:05;97589.44;;;9.38;100.00
71889;BME280;59762;49.998;14.858;2022-09-20T08:20:37;97603.16;;;9.54;100.00
71889;BME280;59762;49.998;14.858;2022-09-20T08:23:04;97589.03;;;9.27;100.00
71889;BME280;59762;49.998;14.858;2022-09-20T08:25:29;97590.44;;;9.23;100.00
71889;BME280;59762;49.998;14.858;2022-09-20T08:27:55;97602.13;;;9.35;100.00
71889;BME280;59762;49.998;14.858;2022-09-20T08:30:21;97599.47;;;9.55;100.00
71889;BME280;59762;49.998;14.858;2022-09-20T08:32:48;97596.00;;;9.55;100.00
71889;BME280;59762;49.998;14.858;2022-09-20T08:35:14;97601.50;;;9.73;100.00
71889;BME280;59762;49.998;14.858;2022-09-20T08:37:40;97592.91;;;9.78;100.00
71889;BME280;59762;49.998;14.858;2022-09-20T08:40:16;97595.38;;;9.79;100.00
71889;BME280;59762;49.998;14.858;2022-09-20T08:42:42;97597.44;;;9.71;100.00
71889;BME280;59762;49.998;14.858;2022-09-20T08:45:21;97597.00;;;9.74;100.00
71889;BME280;59762;49.998;14.858;2022-09-20T08:47:58;97605.84;;;9.74;100.00
71889;BME280;59762;49.998;14.858;2022-09-20T08:50:25;97605.41;;;9.71;100.00
71889;BME280;59762;49.998;14.858;2022-09-20T08:52:54;97602.75;;;9.97;100.00
71889;BME280;59762;49.998;14.858;2022-09-20T08:55:24;97605.56;;;10.09;100.00
71889;BME280;59762;49.998;14.858;2022-09-20T08:57:55;97602.72;;;10.10;100.00
71889;BME280;59762;49.998;14.858;2022-09-20T09:00:24;97597.59;;;10.02;100.00
71889;BME280;59762;49.998;14.858;2022-09-20T09:02:55;97604.59;;;9.83;100.00
71889;BME280;59762;49.998;14.858;2022-09-20T09:05:35;97611.75;;;9.76;100.00
71889;BME280;59762;49.998;14.858;2022-09-20T09:08:08;97614.22;;;9.84;100.00
71889;BME280;59762;49.998;14.858;2022-09-20T09:10:38;97608.88;;;9.91;100.00
71889;BME280;59762;49.998;14.858;2022-09-20T09:13:04;97609.72;;;9.92;100.00
71889;BME280;59762;49.998;14.858;2022-09-20T09:15:35;97617.50;;;9.80;100.00
71889;BME280;59762;49.998;14.858;2022-09-20T09:18:02;97613.59;;;9.89;100.00
71889;BME280;59762;49.998;14.858;2022-09-20T09:20:39;97607.25;;;9.90;100.00
71889;BME280;59762;49.998;14.858;2022-09-20T09:23:07;97609.88;;;10.10;100.00
71889;BME280;59762;49.998;14.858;2022-09-20T09:25:39;97605.34;;;10.24;100.00
71889;BME280;59762;49.998;14.858;2022-09-20T09:30:44;97600.59;;;10.52;100.00
71889;BME280;59762;49.998;14.858;2022-09-20T09:33:24;97601.69;;;10.90;100.00
71889;BME280;59762;49.998;14.858;2022-09-20T09:36:02;97601.22;;;10.99;100.00
71889;BME280;59762;49.998;14.858;2022-09-20T09:38:35;97586.59;;;11.40;100.00
71889;BME280;59762;49.998;14.858;2022-09-20T09:41:24;97590.56;;;11.31;100.00
71889;BME280;59762;49.998;14.858;2022-09-20T09:44:24;97586.81;;;11.07;100.00
71889;BME280;59762;49.998;14.858;2022-09-20T09:46:53;97591.44;;;11.25;100.00
71889;BME280;59762;49.998;14.858;2022-09-20T09:49:22;97589.59;;;11.50;100.00
71889;BME280;59762;49.998;14.858;2022-09-20T09:52:14;97587.97;;;11.49;100.00
71889;BME280;59762;49.998;14.858;2022-09-20T09:54:47;97585.28;;;10.86;100.00
71889;BME280;59762;49.998;14.858;2022-09-20T09:57:37;97594.94;;;10.29;100.00
71889;BME280;59762;49.998;14.858;2022-09-20T10:00:19;97600.09;;;9.44;100.00
71889;BME280;59762;49.998;14.858;2022-09-20T10:02:58;97608.00;;;9.04;100.00
71889;BME280;59762;49.998;14.858;2022-09-20T10:05:38;97612.88;;;8.94;100.00
71889;BME280;59762;49.998;14.858;2022-09-20T10:08:22;97607.56;;;9.01;100.00
71889;BME280;59762;49.998;14.858;2022-09-20T10:14:25;97615.38;;;9.16;100.00
71889;BME280;59762;49.998;14.858;2022-09-20T10:19:47;97614.19;;;9.65;100.00
71889;BME280;59762;49.998;14.858;2022-09-20T10:22:36;97603.97;;;9.88;100.00
71889;BME280;59762;49.998;14.858;2022-09-20T10:30:58;97599.75;;;10.58;100.00
71889;BME280;59762;49.998;14.858;2022-09-20T10:33:31;97596.69;;;10.55;100.00
71889;BME280;59762;49.998;14.858;2022-09-20T10:39:00;97600.41;;;10.47;100.00
71889;BME280;59762;49.998;14.858;2022-09-20T10:47:31;97601.88;;;10.30;100.00
71889;BME280;59762;49.998;14.858;2022-09-20T10:50:18;97602.09;;;10.28;100.00
71889;BME280;59762;49.998;14.858;2022-09-20T10:53:21;97599.44;;;10.15;100.00
71889;BME280;59762;49.998;14.858;2022-09-20T11:01:02;97604.34;;;10.11;100.00
71889;BME280;59762;49.998;14.858;2022-09-20T11:06:46;97592.41;;;10.47;100.00
71889;BME280;59762;49.998;14.858;2022-09-20T11:09:18;97595.06;;;10.47;100.00
71889;BME280;59762;49.998;14.858;2022-09-20T11:11:49;97595.47;;;10.51;100.00
71889;BME280;59762;49.998;14.858;2022-09-20T11:14:28;97593.22;;;10.54;100.00
71889;BME280;59762;49.998;14.858;2022-09-20T11:17:23;97593.41;;;10.59;100.00
71889;BME280;59762;49.998;14.858;2022-09-20T11:19:52;97594.16;;;10.73;100.00
71889;BME280;59762;49.998;14.858;2022-09-20T11:27:30;97615.25;;;10.75;100.00
71889;BME280;59762;49.998;14.858;2022-09-20T11:32:52;97602.88;;;10.42;100.00
71889;BME280;59762;49.998;14.858;2022-09-20T11:37:51;97608.47;;;10.79;100.00
71889;BME280;59762;49.998;14.858;2022-09-20T11:40:26;97605.69;;;10.60;100.00
71889;BME280;59762;49.998;14.858;2022-09-20T11:42:56;97611.53;;;10.89;100.00
71889;BME280;59762;49.998;14.858;2022-09-20T11:45:24;97603.56;;;11.21;100.00
71889;BME280;59762;49.998;14.858;2022-09-20T11:47:52;97600.22;;;11.82;100.00
71889;BME280;59762;49.998;14.858;2022-09-20T11:58:49;97609.38;;;11.04;100.00
71889;BME280;59762;49.998;14.858;2022-09-20T12:04:12;97618.47;;;10.32;100.00
71889;BME280;59762;49.998;14.858;2022-09-20T12:06:46;97620.34;;;9.72;100.00
71889;BME280;59762;49.998;14.858;2022-09-20T12:09:29;97620.94;;;9.47;100.00
71889;BME280;59762;49.998;14.858;2022-09-20T12:11:57;97622.16;;;9.38;100.00
71889;BME280;59762;49.998;14.858;2022-09-20T12:14:28;97628.50;;;9.37;100.00
71889;BME280;59762;49.998;14.858;2022-09-20T12:16:54;97625.81;;;9.24;100.00
71889;BME280;59762;49.998;14.858;2022-09-20T12:24:36;97652.25;;;8.84;100.00
71889;BME280;59762;49.998;14.858;2022-09-20T12:34:56;97676.44;;;7.98;100.00
71889;BME280;59762;49.998;14.858;2022-09-20T12:37:23;97682.50;;;7.92;100.00
71889;BME280;59762;49.998;14.858;2022-09-20T12:39:52;97680.50;;;7.73;100.00
71889;BME280;59762;49.998;14.858;2022-09-20T12:42:28;97681.53;;;7.72;100.00
71889;BME280;59762;49.998;14.858;2022-09-20T12:45:02;97676.47;;;7.77;100.00
71889;BME280;59762;49.998;14.858;2022-09-20T12:47:34;97686.00;;;7.93;100.00
71889;BME280;59762;49.998;14.858;2022-09-20T12:50:12;97678.88;;;8.00;100.00
71889;BME280;59762;49.998;14.858;2022-09-20T12:52:59;97690.03;;;8.17;100.00
71889;BME280;59762;49.998;14.858;2022-09-20T13:11:11;97659.94;;;9.14;100.00
71889;BME280;59762;49.998;14.858;2022-09-20T13:13:43;97652.00;;;9.27;100.00
71889;BME280;59762;49.998;14.858;2022-09-20T13:16:25;97652.63;;;9.42;100.00
71889;BME280;59762;49.998;14.858;2022-09-20T13:19:14;97649.41;;;9.67;100.00
71889;BME280;59762;49.998;14.858;2022-09-20T13:21:57;97651.47;;;9.84;100.00
71889;BME280;59762;49.998;14.858;2022-09-20T13:24:28;97629.94;;;10.26;100.00
71889;BME280;59762;49.998;14.858;2022-09-20T13:27:00;97637.81;;;10.66;100.00
71889;BME280;59762;49.998;14.858;2022-09-20T13:29:33;97632.63;;;10.91;100.00
71889;BME280;59762;49.998;14.858;2022-09-20T13:32:24;97630.31;;;11.01;100.00
71889;BME280;59762;49.998;14.858;2022-09-20T13:37:36;97637.41;;;11.20;100.00
71889;BME280;59762;49.998;14.858;2022-09-20T13:40:03;97639.69;;;11.10;100.00
71889;BME280;59762;49.998;14.858;2022-09-20T13:42:31;97635.47;;;10.96;100.00
71889;BME280;59762;49.998;14.858;2022-09-20T13:45:01;97631.63;;;10.78;100.00
71889;BME280;59762;49.998;14.858;2022-09-20T13:47:30;97623.94;;;10.57;100.00
71889;BME280;59762;49.998;14.858;2022-09-20T13:50:21;97624.19;;;10.35;100.00
71889;BME280;59762;49.998;14.858;2022-09-20T13:52:50;97623.78;;;10.39;100.00
71889;BME280;59762;49.998;14.858;2022-09-20T13:57:45;97628.88;;;10.40;100.00
71889;BME280;59762;49.998;14.858;2022-09-20T14:00:13;97632.59;;;10.32;100.00
71889;BME280;59762;49.998;14.858;2022-09-20T14:02:40;97624.41;;;10.21;100.00
71889;BME280;59762;49.998;14.858;2022-09-20T14:05:06;97622.41;;;9.96;100.00
71889;BME280;59762;49.998;14.858;2022-09-20T14:07:42;97630.34;;;10.03;100.00
71889;BME280;59762;49.998;14.858;2022-09-20T14:10:29;97623.19;;;10.03;100.00
71889;BME280;59762;49.998;14.858;2022-09-20T14:12:57;97631.19;;;9.90;100.00
71889;BME280;59762;49.998;14.858;2022-09-20T14:15:24;97614.81;;;9.73;100.00
71889;BME280;59762;49.998;14.858;2022-09-20T14:17:52;97616.66;;;9.40;100.00
71889;BME280;59762;49.998;14.858;2022-09-20T14:20:19;97625.19;;;9.08;100.00
71889;BME280;59762;49.998;14.858;2022-09-20T14:22:45;97630.50;;;9.08;100.00
71889;BME280;59762;49.998;14.858;2022-09-20T14:27:37;97630.94;;;9.32;100.00
71889;BME280;59762;49.998;14.858;2022-09-20T14:30:05;97635.03;;;9.41;100.00
71889;BME280;59762;49.998;14.858;2022-09-20T14:32:38;97636.28;;;9.45;100.00
71889;BME280;59762;49.998;14.858;2022-09-20T14:35:15;97628.50;;;9.50;100.00
71889;BME280;59762;49.998;14.858;2022-09-20T14:37:43;97632.63;;;9.53;100.00
71889;BME280;59762;49.998;14.858;2022-09-20T14:40:20;97643.28;;;9.66;100.00
71889;BME280;59762;49.998;14.858;2022-09-20T14:42:56;97640.19;;;9.82;100.00
71889;BME280;59762;49.998;14.858;2022-09-20T14:45:35;97647.16;;;9.97;100.00
71889;BME280;59762;49.998;14.858;2022-09-20T14:53:35;97644.06;;;10.13;100.00
71889;BME280;59762;49.998;14.858;2022-09-20T14:56:07;97646.09;;;10.31;100.00
71889;BME280;59762;49.998;14.858;2022-09-20T14:59:54;97644.22;;;10.51;100.00
71889;BME280;59762;49.998;14.858;2022-09-20T15:04:34;97649.41;;;10.26;100.00
71889;BME280;59762;49.998;14.858;2022-09-20T15:07:04;97647.16;;;10.30;100.00
71889;BME280;59762;49.998;14.858;2022-09-20T15:09:31;97652.88;;;10.27;100.00
71889;BME280;59762;49.998;14.858;2022-09-20T15:14:25;97659.66;;;10.09;100.00
71889;BME280;59762;49.998;14.858;2022-09-20T15:16:51;97655.53;;;9.94;100.00
71889;BME280;59762;49.998;14.858;2022-09-20T15:19:16;97661.28;;;9.91;100.00
71889;BME280;59762;49.998;14.858;2022-09-20T15:21:42;97662.28;;;9.90;100.00
71889;BME280;59762;49.998;14.858;2022-09-20T15:24:08;97663.13;;;9.97;100.00
71889;BME280;59762;49.998;14.858;2022-09-20T15:26:34;97660.66;;;10.02;100.00
71889;BME280;59762;49.998;14.858;2022-09-20T15:29:00;97660.44;;;10.03;100.00
71889;BME280;59762;49.998;14.858;2022-09-20T15:31:26;97667.41;;;9.91;100.00
71889;BME280;59762;49.998;14.858;2022-09-20T15:33:52;97672.72;;;9.71;100.00
71889;BME280;59762;49.998;14.858;2022-09-20T15:36:18;97672.72;;;9.58;100.00
71889;BME280;59762;49.998;14.858;2022-09-20T15:38:43;97675.75;;;9.42;100.00
71889;BME280;59762;49.998;14.858;2022-09-20T15:41:10;97682.06;;;9.27;100.00
71889;BME280;59762;49.998;14.858;2022-09-20T15:43:36;97678.78;;;9.25;100.00
71889;BME280;59762;49.998;14.858;2022-09-20T15:46:19;97688.53;;;9.12;100.00
71889;BME280;59762;49.998;14.858;2022-09-20T15:48:45;97689.31;;;8.99;100.00
71889;BME280;59762;49.998;14.858;2022-09-20T15:51:11;97693.34;;;8.81;100.00
71889;BME280;59762;49.998;14.858;2022-09-20T15:53:46;97697.75;;;8.68;100.00
71889;BME280;59762;49.998;14.858;2022-09-20T15:56:28;97702.78;;;8.56;100.00
71889;BME280;59762;49.998;14.858;2022-09-20T15:58:56;97701.75;;;8.50;100.00
71889;BME280;59762;49.998;14.858;2022-09-20T16:01:33;97701.91;;;8.42;100.00
71889;BME280;59762;49.998;14.858;2022-09-20T16:04:14;97708.94;;;8.35;100.00
71889;BME280;59762;49.998;14.858;2022-09-20T16:06:43;97710.94;;;8.26;100.00
71889;BME280;59762;49.998;14.858;2022-09-20T16:09:09;97717.63;;;8.22;100.00
71889;BME280;59762;49.998;14.858;2022-09-20T16:11:36;97720.88;;;8.18;100.00
71889;BME280;59762;49.998;14.858;2022-09-20T16:14:03;97715.97;;;8.15;100.00
71889;BME280;59762;49.998;14.858;2022-09-20T16:16:30;97719.16;;;8.10;100.00
71889;BME280;59762;49.998;14.858;2022-09-20T16:18:57;97716.28;;;8.05;100.00
71889;BME280;59762;49.998;14.858;2022-09-20T16:21:54;97719.94;;;8.04;100.00
71889;BME280;59762;49.998;14.858;2022-09-20T16:24:27;97719.91;;;7.97;100.00
71889;BME280;59762;49.998;14.858;2022-09-20T16:26:53;97721.34;;;8.00;100.00
71889;BME280;59762;49.998;14.858;2022-09-20T16:29:19;97726.25;;;8.03;100.00
71889;BME280;59762;49.998;14.858;2022-09-20T16:31:49;97721.00;;;8.09;100.00
71889;BME280;59762;49.998;14.858;2022-09-20T16:34:23;97728.22;;;8.16;100.00
71889;BME280;59762;49.998;14.858;2022-09-20T16:36:59;97730.66;;;8.17;100.00
71889;BME280;59762;49.998;14.858;2022-09-20T16:39:27;97732.94;;;8.20;100.00
71889;BME280;59762;49.998;14.858;2022-09-20T16:41:54;97740.09;;;8.20;100.00
71889;BME280;59762;49.998;14.858;2022-09-20T16:44:22;97737.81;;;8.17;100.00
71889;BME280;59762;49.998;14.858;2022-09-20T16:46:48;97739.97;;;8.06;100.00
71889;BME280;59762;49.998;14.858;2022-09-20T16:49:13;97742.75;;;7.98;100.00
71889;BME280;59762;49.998;14.858;2022-09-20T16:51:42;97749.38;;;7.88;100.00
71889;BME280;59762;49.998;14.858;2022-09-20T16:54:12;97753.97;;;7.79;100.00
71889;BME280;59762;49.998;14.858;2022-09-20T16:56:43;97750.91;;;7.75;100.00
71889;BME280;59762;49.998;14.858;2022-09-20T16:59:10;97756.50;;;7.66;100.00
71889;BME280;59762;49.998;14.858;2022-09-20T17:01:37;97753.69;;;7.67;100.00
71889;BME280;59762;49.998;14.858;2022-09-20T17:04:04;97756.50;;;7.66;100.00
71889;BME280;59762;49.998;14.858;2022-09-20T17:06:32;97756.63;;;7.57;100.00
71889;BME280;59762;49.998;14.858;2022-09-20T17:08:59;97747.41;;;7.53;100.00
71889;BME280;59762;49.998;14.858;2022-09-20T17:11:31;97756.34;;;7.52;100.00
71889;BME280;59762;49.998;14.858;2022-09-20T17:13:57;97756.34;;;7.52;100.00
71889;BME280;59762;49.998;14.858;2022-09-20T17:16:25;97759.31;;;7.43;100.00
71889;BME280;59762;49.998;14.858;2022-09-20T17:18:59;97754.31;;;7.33;100.00
71889;BME280;59762;49.998;14.858;2022-09-20T17:21:27;97765.13;;;7.31;100.00
71889;BME280;59762;49.998;14.858;2022-09-20T17:23:55;97768.13;;;7.28;100.00
71889;BME280;59762;49.998;14.858;2022-09-20T17:26:24;97769.84;;;7.21;100.00
71889;BME280;59762;49.998;14.858;2022-09-20T17:28:53;97778.09;;;7.12;100.00
71889;BME280;59762;49.998;14.858;2022-09-20T17:31:22;97783.78;;;7.08;100.00
71889;BME280;59762;49.998;14.858;2022-09-20T17:33:49;97786.78;;;7.05;100.00
71889;BME280;59762;49.998;14.858;2022-09-20T17:36:17;97785.78;;;7.06;100.00
71889;BME280;59762;49.998;14.858;2022-09-20T17:38:52;97798.75;;;7.01;100.00
71889;BME280;59762;49.998;14.858;2022-09-20T17:41:18;97797.75;;;7.02;100.00
71889;BME280;59762;49.998;14.858;2022-09-20T17:43:45;97804.69;;;7.03;100.00
71889;BME280;59762;49.998;14.858;2022-09-20T17:46:16;97797.59;;;7.04;100.00